sensor_id;sensor_type;location;lat;lon;timestamp;temperature;humidity
67777;DHT22;54576;52.020;5.536;2023-11-19T00:01:01;13.40;99.90
67777;DHT22;54576;52.020;5.536;2023-11-19T00:03:27;13.40;99.90
67777;DHT22;54576;52.020;5.536;2023-11-19T00:05:52;13.40;99.90
67777;DHT22;54576;52.020;5.536;2023-11-19T00:08:18;13.40;99.90
67777;DHT22;54576;52.020;5.536;2023-11-19T00:10:44;13.40;99.90
67777;DHT22;54576;52.020;5.536;2023-11-19T00:13:11;13.40;99.90
67777;DHT22;54576;52.020;5.536;2023-11-19T00:15:37;13.40;99.90
67777;DHT22;54576;52.020;5.536;2023-11-19T00:18:03;13.40;99.90
67777;DHT22;54576;52.020;5.536;2023-11-19T00:20:30;13.40;99.90
67777;DHT22;54576;52.020;5.536;2023-11-19T00:22:56;13.40;99.90
67777;DHT22;54576;52.020;5.536;2023-11-19T00:25:21;13.40;99.90
67777;DHT22;54576;52.020;5.536;2023-11-19T00:27:47;13.40;99.90
67777;DHT22;54576;52.020;5.536;2023-11-19T00:30:13;13.40;99.90
67777;DHT22;54576;52.020;5.536;2023-11-19T00:32:41;13.40;99.90
67777;DHT22;54576;52.020;5.536;2023-11-19T00:35:07;13.40;99.90
67777;DHT22;54576;52.020;5.536;2023-11-19T00:37:33;13.40;99.90
67777;DHT22;54576;52.020;5.536;2023-11-19T00:39:58;13.40;99.90
67777;DHT22;54576;52.020;5.536;2023-11-19T00:42:24;13.40;99.90
67777;DHT22;54576;52.020;5.536;2023-11-19T00:44:53;13.30;99.90
67777;DHT22;54576;52.020;5.536;2023-11-19T00:47:19;13.40;99.90
67777;DHT22;54576;52.020;5.536;2023-11-19T00:49:48;13.30;99.90
67777;DHT22;54576;52.020;5.536;2023-11-19T00:52:16;13.40;99.90
67777;DHT22;54576;52.020;5.536;2023-11-19T00:54:42;13.30;99.90
67777;DHT22;54576;52.020;5.536;2023-11-19T00:57:08;13.30;99.90
67777;DHT22;54576;52.020;5.536;2023-11-19T00:59:34;13.30;99.90
67777;DHT22;54576;52.020;5.536;2023-11-19T01:01:59;13.30;99.90
67777;DHT22;54576;52.020;5.536;2023-11-19T01:04:33;13.30;99.90
67777;DHT22;54576;52.020;5.536;2023-11-19T01:06:59;13.30;99.90
67777;DHT22;54576;52.020;5.536;2023-11-19T01:09:24;13.30;99.90
67777;DHT22;54576;52.020;5.536;2023-11-19T01:11:51;13.30;99.90
67777;DHT22;54576;52.020;5.536;2023-11-19T01:14:17;13.30;99.90
67777;DHT22;54576;52.020;5.536;2023-11-19T01:16:43;13.30;99.90
67777;DHT22;54576;52.020;5.536;2023-11-19T01:19:12;13.30;99.90
67777;DHT22;54576;52.020;5.536;2023-11-19T01:21:38;13.30;99.90
67777;DHT22;54576;52.020;5.536;2023-11-19T01:24:03;13.30;99.90
67777;DHT22;54576;52.020;5.536;2023-11-19T01:26:31;13.20;99.90
67777;DHT22;54576;52.020;5.536;2023-11-19T01:28:57;13.30;99.90
67777;DHT22;54576;52.020;5.536;2023-11-19T01:31:22;13.30;99.90
67777;DHT22;54576;52.020;5.536;2023-11-19T01:33:48;13.30;99.90
67777;DHT22;54576;52.020;5.536;2023-11-19T01:36:14;13.30;99.90
67777;DHT22;54576;52.020;5.536;2023-11-19T01:38:39;13.30;99.90
67777;DHT22;54576;52.020;5.536;2023-11-19T01:41:05;13.30;99.90
67777;DHT22;54576;52.020;5.536;2023-11-19T01:43:39;13.30;99.90
67777;DHT22;54576;52.020;5.536;2023-11-19T01:46:07;13.30;99.90
67777;DHT22;54576;52.020;5.536;2023-11-19T01:48:35;13.30;99.90
67777;DHT22;54576;52.020;5.536;2023-11-19T01:51:03;13.30;99.90
67777;DHT22;54576;52.020;5.536;2023-11-19T01:53:29;13.30;99.90
67777;DHT22;54576;52.020;5.536;2023-11-19T01:55:56;13.30;99.90
67777;DHT22;54576;52.020;5.536;2023-11-19T01:58:22;13.30;99.90
67777;DHT22;54576;52.020;5.536;2023-11-19T02:00:48;13.30;99.90
67777;DHT22;54576;52.020;5.536;2023-11-19T02:03:14;13.20;99.90
67777;DHT22;54576;52.020;5.536;2023-11-19T02:05:41;13.30;99.90
67777;DHT22;54576;52.020;5.536;2023-11-19T02:08:06;13.30;99.90
67777;DHT22;54576;52.020;5.536;2023-11-19T02:10:35;13.20;99.90
67777;DHT22;54576;52.020;5.536;2023-11-19T02:13:01;13.20;99.90
67777;DHT22;54576;52.020;5.536;2023-11-19T02:15:28;13.20;99.90
67777;DHT22;54576;52.020;5.536;2023-11-19T02:17:53;13.10;99.90
67777;DHT22;54576;52.020;5.536;2023-11-19T02:20:19;13.10;99.90
67777;DHT22;54576;52.020;5.536;2023-11-19T02:22:49;13.00;99.90
67777;DHT22;54576;52.020;5.536;2023-11-19T02:25:30;13.00;99.90
67777;DHT22;54576;52.020;5.536;2023-11-19T02:28:02;13.00;99.90
67777;DHT22;54576;52.020;5.536;2023-11-19T02:30:27;13.00;99.90
67777;DHT22;54576;52.020;5.536;2023-11-19T02:32:57;12.90;99.90
67777;DHT22;54576;52.020;5.536;2023-11-19T02:35:27;12.90;99.90
67777;DHT22;54576;52.020;5.536;2023-11-19T02:37:56;12.90;99.90
67777;DHT22;54576;52.020;5.536;2023-11-19T02:40:21;12.90;99.90
67777;DHT22;54576;52.020;5.536;2023-11-19T02:42:49;12.80;99.90
67777;DHT22;54576;52.020;5.536;2023-11-19T02:45:15;12.80;99.90
67777;DHT22;54576;52.020;5.536;2023-11-19T02:47:41;12.80;99.90
67777;DHT22;54576;52.020;5.536;2023-11-19T02:50:10;12.80;99.90
67777;DHT22;54576;52.020;5.536;2023-11-19T02:52:43;12.70;99.90
67777;DHT22;54576;52.020;5.536;2023-11-19T02:55:12;12.70;99.90
67777;DHT22;54576;52.020;5.536;2023-11-19T02:57:39;12.70;99.90
67777;DHT22;54576;52.020;5.536;2023-11-19T03:00:21;12.70;99.90
67777;DHT22;54576;52.020;5.536;2023-11-19T03:02:51;12.60;99.90
67777;DHT22;54576;52.020;5.536;2023-11-19T03:05:25;12.60;99.90
67777;DHT22;54576;52.020;5.536;2023-11-19T03:07:52;12.50;99.90
67777;DHT22;54576;52.020;5.536;2023-11-19T03:10:17;12.50;99.90
67777;DHT22;54576;52.020;5.536;2023-11-19T03:12:44;12.40;99.90
67777;DHT22;54576;52.020;5.536;2023-11-19T03:15:11;12.40;99.90
67777;DHT22;54576;52.020;5.536;2023-11-19T03:17:40;12.40;99.90
67777;DHT22;54576;52.020;5.536;2023-11-19T03:20:07;12.40;99.90
67777;DHT22;54576;52.020;5.536;2023-11-19T03:22:36;12.40;99.90
67777;DHT22;54576;52.020;5.536;2023-11-19T03:25:02;12.40;99.90
67777;DHT22;54576;52.020;5.536;2023-11-19T03:27:28;12.30;99.90
67777;DHT22;54576;52.020;5.536;2023-11-19T03:29:53;12.30;99.90
67777;DHT22;54576;52.020;5.536;2023-11-19T03:32:19;12.20;99.90
67777;DHT22;54576;52.020;5.536;2023-11-19T03:34:45;12.20;99.90
67777;DHT22;54576;52.020;5.536;2023-11-19T03:37:17;12.10;99.90
67777;DHT22;54576;52.020;5.536;2023-11-19T03:39:43;12.10;99.90
67777;DHT22;54576;52.020;5.536;2023-11-19T03:42:08;12.10;99.90
67777;DHT22;54576;52.020;5.536;2023-11-19T03:44:34;12.00;99.90
67777;DHT22;54576;52.020;5.536;2023-11-19T03:46:59;11.90;99.90
67777;DHT22;54576;52.020;5.536;2023-11-19T03:49:25;11.90;99.90
67777;DHT22;54576;52.020;5.536;2023-11-19T03:51:50;11.80;99.90
67777;DHT22;54576;52.020;5.536;2023-11-19T03:54:16;11.80;99.90
67777;DHT22;54576;52.020;5.536;2023-11-19T03:56:41;11.70;99.90
67777;DHT22;54576;52.020;5.536;2023-11-19T03:59:07;11.70;99.90
67777;DHT22;54576;52.020;5.536;2023-11-19T04:01:36;11.70;99.90
67777;DHT22;54576;52.020;5.536;2023-11-19T04:04:02;11.70;99.90
67777;DHT22;54576;52.020;5.536;2023-11-19T04:06:28;11.60;99.90
67777;DHT22;54576;52.020;5.536;2023-11-19T04:08:54;11.60;99.90
67777;DHT22;54576;52.020;5.536;2023-11-19T04:11:19;11.60;99.90
67777;DHT22;54576;52.020;5.536;2023-11-19T04:13:45;11.60;99.90
67777;DHT22;54576;52.020;5.536;2023-11-19T04:16:10;11.50;99.90
67777;DHT22;54576;52.020;5.536;2023-11-19T04:18:36;11.50;99.90
67777;DHT22;54576;52.020;5.536;2023-11-19T04:21:01;11.50;99.90
67777;DHT22;54576;52.020;5.536;2023-11-19T04:23:27;11.50;99.90
67777;DHT22;54576;52.020;5.536;2023-11-19T04:25:52;11.50;99.90
67777;DHT22;54576;52.020;5.536;2023-11-19T04:28:18;11.50;99.90
67777;DHT22;54576;52.020;5.536;2023-11-19T04:30:44;11.40;99.90
67777;DHT22;54576;52.020;5.536;2023-11-19T04:33:09;11.40;99.90
67777;DHT22;54576;52.020;5.536;2023-11-19T04:35:35;11.50;99.90
67777;DHT22;54576;52.020;5.536;2023-11-19T04:38:00;11.40;99.90
67777;DHT22;54576;52.020;5.536;2023-11-19T04:40:26;11.40;99.90
67777;DHT22;54576;52.020;5.536;2023-11-19T04:42:52;11.40;99.90
67777;DHT22;54576;52.020;5.536;2023-11-19T04:45:17;11.40;99.90
67777;DHT22;54576;52.020;5.536;2023-11-19T04:47:43;11.30;99.90
67777;DHT22;54576;52.020;5.536;2023-11-19T04:50:09;11.40;99.90
67777;DHT22;54576;52.020;5.536;2023-11-19T04:52:38;11.30;99.90
67777;DHT22;54576;52.020;5.536;2023-11-19T04:55:05;11.30;99.90
67777;DHT22;54576;52.020;5.536;2023-11-19T04:57:31;11.30;99.90
67777;DHT22;54576;52.020;5.536;2023-11-19T04:59:58;11.30;99.90
67777;DHT22;54576;52.020;5.536;2023-11-19T05:02:24;11.30;99.90
67777;DHT22;54576;52.020;5.536;2023-11-19T05:04:49;11.30;99.90
67777;DHT22;54576;52.020;5.536;2023-11-19T05:07:15;11.30;99.90
67777;DHT22;54576;52.020;5.536;2023-11-19T05:09:40;11.30;99.90
67777;DHT22;54576;52.020;5.536;2023-11-19T05:12:06;11.30;99.90
67777;DHT22;54576;52.020;5.536;2023-11-19T05:14:35;11.30;99.90
67777;DHT22;54576;52.020;5.536;2023-11-19T05:17:01;11.30;99.90
67777;DHT22;54576;52.020;5.536;2023-11-19T05:19:26;11.40;99.90
67777;DHT22;54576;52.020;5.536;2023-11-19T05:21:52;11.40;99.90
67777;DHT22;54576;52.020;5.536;2023-11-19T05:24:17;11.30;99.90
67777;DHT22;54576;52.020;5.536;2023-11-19T05:26:43;11.30;99.90
67777;DHT22;54576;52.020;5.536;2023-11-19T05:29:09;11.30;99.90
67777;DHT22;54576;52.020;5.536;2023-11-19T05:31:34;11.30;99.90
67777;DHT22;54576;52.020;5.536;2023-11-19T05:34:00;11.30;99.90
67777;DHT22;54576;52.020;5.536;2023-11-19T05:36:25;11.30;99.90
67777;DHT22;54576;52.020;5.536;2023-11-19T05:38:51;11.30;99.90
67777;DHT22;54576;52.020;5.536;2023-11-19T05:41:16;11.30;99.90
67777;DHT22;54576;52.020;5.536;2023-11-19T05:43:42;11.30;99.90
67777;DHT22;54576;52.020;5.536;2023-11-19T05:46:08;11.30;99.90
67777;DHT22;54576;52.020;5.536;2023-11-19T05:48:34;11.30;99.90
67777;DHT22;54576;52.020;5.536;2023-11-19T05:50:59;11.30;99.90
67777;DHT22;54576;52.020;5.536;2023-11-19T05:53:25;11.30;99.90
67777;DHT22;54576;52.020;5.536;2023-11-19T05:55:51;11.30;99.90
67777;DHT22;54576;52.020;5.536;2023-11-19T05:58:29;11.40;99.90
67777;DHT22;54576;52.020;5.536;2023-11-19T06:00:56;11.40;99.90
67777;DHT22;54576;52.020;5.536;2023-11-19T06:03:22;11.40;99.90
67777;DHT22;54576;52.020;5.536;2023-11-19T06:05:48;11.40;99.90
67777;DHT22;54576;52.020;5.536;2023-11-19T06:08:14;11.30;99.90
67777;DHT22;54576;52.020;5.536;2023-11-19T06:10:40;11.30;99.90
67777;DHT22;54576;52.020;5.536;2023-11-19T06:13:06;11.40;99.90
67777;DHT22;54576;52.020;5.536;2023-11-19T06:15:33;11.30;99.90
67777;DHT22;54576;52.020;5.536;2023-11-19T06:17:58;11.30;99.90
67777;DHT22;54576;52.020;5.536;2023-11-19T06:20:32;11.30;99.90
67777;DHT22;54576;52.020;5.536;2023-11-19T06:22:58;11.30;99.90
67777;DHT22;54576;52.020;5.536;2023-11-19T06:25:23;11.20;99.90
67777;DHT22;54576;52.020;5.536;2023-11-19T06:27:52;11.20;99.90
67777;DHT22;54576;52.020;5.536;2023-11-19T06:30:18;11.20;99.90
67777;DHT22;54576;52.020;5.536;2023-11-19T06:32:44;11.20;99.90
67777;DHT22;54576;52.020;5.536;2023-11-19T06:35:10;11.20;99.90
67777;DHT22;54576;52.020;5.536;2023-11-19T06:37:38;11.10;99.90
67777;DHT22;54576;52.020;5.536;2023-11-19T06:40:05;11.10;99.90
67777;DHT22;54576;52.020;5.536;2023-11-19T06:42:31;11.20;99.90
67777;DHT22;54576;52.020;5.536;2023-11-19T06:44:57;11.10;99.90
67777;DHT22;54576;52.020;5.536;2023-11-19T06:47:27;11.10;99.90
67777;DHT22;54576;52.020;5.536;2023-11-19T06:49:54;11.10;99.90
67777;DHT22;54576;52.020;5.536;2023-11-19T06:52:19;11.10;99.90
67777;DHT22;54576;52.020;5.536;2023-11-19T06:54:45;11.10;99.90
67777;DHT22;54576;52.020;5.536;2023-11-19T06:57:11;11.10;99.90
67777;DHT22;54576;52.020;5.536;2023-11-19T06:59:37;11.10;99.90
67777;DHT22;54576;52.020;5.536;2023-11-19T07:02:03;11.10;99.90
67777;DHT22;54576;52.020;5.536;2023-11-19T07:04:28;11.10;99.90
67777;DHT22;54576;52.020;5.536;2023-11-19T07:06:54;11.10;99.90
67777;DHT22;54576;52.020;5.536;2023-11-19T07:09:19;11.20;99.90
67777;DHT22;54576;52.020;5.536;2023-11-19T07:11:46;11.20;99.90
67777;DHT22;54576;52.020;5.536;2023-11-19T07:14:12;11.30;99.90
67777;DHT22;54576;52.020;5.536;2023-11-19T07:16:37;11.30;99.90
67777;DHT22;54576;52.020;5.536;2023-11-19T07:19:04;11.30;99.90
67777;DHT22;54576;52.020;5.536;2023-11-19T07:21:31;11.30;99.90
67777;DHT22;54576;52.020;5.536;2023-11-19T07:23:58;11.30;99.90
67777;DHT22;54576;52.020;5.536;2023-11-19T07:26:23;11.30;99.90
67777;DHT22;54576;52.020;5.536;2023-11-19T07:28:50;11.30;99.90
67777;DHT22;54576;52.020;5.536;2023-11-19T07:31:16;11.30;99.90
67777;DHT22;54576;52.020;5.536;2023-11-19T07:33:45;11.40;99.90
67777;DHT22;54576;52.020;5.536;2023-11-19T07:36:13;11.30;99.90
67777;DHT22;54576;52.020;5.536;2023-11-19T07:38:39;11.40;99.90
67777;DHT22;54576;52.020;5.536;2023-11-19T07:41:05;11.40;99.90
67777;DHT22;54576;52.020;5.536;2023-11-19T07:43:32;11.40;99.90
67777;DHT22;54576;52.020;5.536;2023-11-19T07:45:58;11.50;99.90
67777;DHT22;54576;52.020;5.536;2023-11-19T07:48:27;11.50;99.90
67777;DHT22;54576;52.020;5.536;2023-11-19T07:50:53;11.50;99.90
67777;DHT22;54576;52.020;5.536;2023-11-19T07:53:19;11.50;99.90
67777;DHT22;54576;52.020;5.536;2023-11-19T07:55:45;11.50;99.90
67777;DHT22;54576;52.020;5.536;2023-11-19T07:58:11;11.50;99.90
67777;DHT22;54576;52.020;5.536;2023-11-19T08:00:37;11.50;99.90
67777;DHT22;54576;52.020;5.536;2023-11-19T08:03:03;11.50;99.90
67777;DHT22;54576;52.020;5.536;2023-11-19T08:05:29;11.50;99.90
67777;DHT22;54576;52.020;5.536;2023-11-19T08:07:55;11.60;99.90
67777;DHT22;54576;52.020;5.536;2023-11-19T08:10:20;11.50;99.90
67777;DHT22;54576;52.020;5.536;2023-11-19T08:12:46;11.60;99.90
67777;DHT22;54576;52.020;5.536;2023-11-19T08:15:12;11.60;99.90
67777;DHT22;54576;52.020;5.536;2023-11-19T08:17:38;11.60;99.90
67777;DHT22;54576;52.020;5.536;2023-11-19T08:20:04;11.60;99.90
67777;DHT22;54576;52.020;5.536;2023-11-19T08:22:30;11.70;99.90
67777;DHT22;54576;52.020;5.536;2023-11-19T08:24:56;11.70;99.90
67777;DHT22;54576;52.020;5.536;2023-11-19T08:27:22;11.70;99.90
67777;DHT22;54576;52.020;5.536;2023-11-19T08:29:53;11.80;99.90
67777;DHT22;54576;52.020;5.536;2023-11-19T08:32:21;11.80;99.90
67777;DHT22;54576;52.020;5.536;2023-11-19T08:34:46;11.80;99.90
67777;DHT22;54576;52.020;5.536;2023-11-19T08:37:12;11.90;99.90
67777;DHT22;54576;52.020;5.536;2023-11-19T08:39:38;11.90;99.90
67777;DHT22;54576;52.020;5.536;2023-11-19T08:42:04;11.90;99.90
67777;DHT22;54576;52.020;5.536;2023-11-19T08:44:29;12.00;99.90
67777;DHT22;54576;52.020;5.536;2023-11-19T08:46:55;12.00;99.90
67777;DHT22;54576;52.020;5.536;2023-11-19T08:49:23;12.00;99.90
67777;DHT22;54576;52.020;5.536;2023-11-19T08:51:49;12.00;99.90
67777;DHT22;54576;52.020;5.536;2023-11-19T08:54:15;12.10;99.90
67777;DHT22;54576;52.020;5.536;2023-11-19T08:56:40;12.10;99.90
67777;DHT22;54576;52.020;5.536;2023-11-19T08:59:06;12.10;99.90
67777;DHT22;54576;52.020;5.536;2023-11-19T09:01:31;12.20;99.90
67777;DHT22;54576;52.020;5.536;2023-11-19T09:03:57;12.20;99.90
67777;DHT22;54576;52.020;5.536;2023-11-19T09:06:23;12.30;99.90
67777;DHT22;54576;52.020;5.536;2023-11-19T09:11:15;12.30;99.90
67777;DHT22;54576;52.020;5.536;2023-11-19T09:13:41;12.40;99.90
67777;DHT22;54576;52.020;5.536;2023-11-19T09:16:07;12.40;99.90
67777;DHT22;54576;52.020;5.536;2023-11-19T09:18:32;12.40;99.90
67777;DHT22;54576;52.020;5.536;2023-11-19T09:20:58;12.50;99.90
67777;DHT22;54576;52.020;5.536;2023-11-19T09:23:24;12.50;99.90
67777;DHT22;54576;52.020;5.536;2023-11-19T09:25:54;12.50;99.90
67777;DHT22;54576;52.020;5.536;2023-11-19T09:28:20;12.60;99.90
67777;DHT22;54576;52.020;5.536;2023-11-19T09:30:46;12.70;99.90
67777;DHT22;54576;52.020;5.536;2023-11-19T09:33:14;12.80;99.90
67777;DHT22;54576;52.020;5.536;2023-11-19T09:35:40;12.80;99.90
67777;DHT22;54576;52.020;5.536;2023-11-19T09:40:31;12.80;99.90
67777;DHT22;54576;52.020;5.536;2023-11-19T09:42:57;12.80;99.90
67777;DHT22;54576;52.020;5.536;2023-11-19T09:45:27;12.80;99.90
67777;DHT22;54576;52.020;5.536;2023-11-19T09:47:55;12.80;99.90
67777;DHT22;54576;52.020;5.536;2023-11-19T09:50:23;12.80;99.90
67777;DHT22;54576;52.020;5.536;2023-11-19T09:52:49;12.90;99.90
67777;DHT22;54576;52.020;5.536;2023-11-19T09:55:15;12.90;99.90
67777;DHT22;54576;52.020;5.536;2023-11-19T09:57:41;12.90;99.90
67777;DHT22;54576;52.020;5.536;2023-11-19T10:00:08;13.00;99.90
67777;DHT22;54576;52.020;5.536;2023-11-19T10:02:37;13.10;99.90
67777;DHT22;54576;52.020;5.536;2023-11-19T10:05:23;13.20;99.90
67777;DHT22;54576;52.020;5.536;2023-11-19T10:07:49;13.20;99.90
67777;DHT22;54576;52.020;5.536;2023-11-19T10:10:15;13.20;99.90
67777;DHT22;54576;52.020;5.536;2023-11-19T10:12:47;13.20;99.90
67777;DHT22;54576;52.020;5.536;2023-11-19T10:15:23;13.20;99.90
67777;DHT22;54576;52.020;5.536;2023-11-19T10:17:50;13.10;99.90
67777;DHT22;54576;52.020;5.536;2023-11-19T10:20:17;13.10;99.90
67777;DHT22;54576;52.020;5.536;2023-11-19T10:22:42;13.00;99.90
67777;DHT22;54576;52.020;5.536;2023-11-19T10:25:27;13.00;99.90
67777;DHT22;54576;52.020;5.536;2023-11-19T10:27:54;13.00;99.90
67777;DHT22;54576;52.020;5.536;2023-11-19T10:30:21;13.10;99.90
67777;DHT22;54576;52.020;5.536;2023-11-19T10:33:03;13.10;99.90
67777;DHT22;54576;52.020;5.536;2023-11-19T10:35:28;13.10;99.90
67777;DHT22;54576;52.020;5.536;2023-11-19T10:37:54;13.20;99.90
67777;DHT22;54576;52.020;5.536;2023-11-19T10:40:20;13.20;99.90
67777;DHT22;54576;52.020;5.536;2023-11-19T10:42:45;13.20;99.90
67777;DHT22;54576;52.020;5.536;2023-11-19T10:45:23;13.30;99.90
67777;DHT22;54576;52.020;5.536;2023-11-19T10:47:51;13.30;99.90
67777;DHT22;54576;52.020;5.536;2023-11-19T10:52:44;13.40;99.90
67777;DHT22;54576;52.020;5.536;2023-11-19T10:55:11;13.50;99.90
67777;DHT22;54576;52.020;5.536;2023-11-19T10:57:43;13.40;99.90
67777;DHT22;54576;52.020;5.536;2023-11-19T11:00:13;13.50;99.90
67777;DHT22;54576;52.020;5.536;2023-11-19T11:02:45;13.60;99.90
67777;DHT22;54576;52.020;5.536;2023-11-19T11:05:12;13.60;99.90
67777;DHT22;54576;52.020;5.536;2023-11-19T11:07:39;13.70;99.90
67777;DHT22;54576;52.020;5.536;2023-11-19T11:10:09;13.70;99.90
67777;DHT22;54576;52.020;5.536;2023-11-19T11:12:37;13.70;99.90
67777;DHT22;54576;52.020;5.536;2023-11-19T11:19:58;13.70;99.90
67777;DHT22;54576;52.020;5.536;2023-11-19T11:22:24;13.70;99.90
67777;DHT22;54576;52.020;5.536;2023-11-19T11:25:16;13.70;99.90
67777;DHT22;54576;52.020;5.536;2023-11-19T11:28:13;13.70;99.90
67777;DHT22;54576;52.020;5.536;2023-11-19T11:36:22;13.80;99.90
67777;DHT22;54576;52.020;5.536;2023-11-19T11:38:49;13.90;99.90
67777;DHT22;54576;52.020;5.536;2023-11-19T11:41:19;13.80;99.90
67777;DHT22;54576;52.020;5.536;2023-11-19T11:43:49;13.80;99.90
67777;DHT22;54576;52.020;5.536;2023-11-19T11:51:59;13.80;99.90
67777;DHT22;54576;52.020;5.536;2023-11-19T11:54:28;13.80;99.90
67777;DHT22;54576;52.020;5.536;2023-11-19T11:57:02;13.70;99.90
67777;DHT22;54576;52.020;5.536;2023-11-19T12:02:08;13.60;99.90
67777;DHT22;54576;52.020;5.536;2023-11-19T12:04:35;13.60;99.90
67777;DHT22;54576;52.020;5.536;2023-11-19T12:07:04;13.60;99.90
67777;DHT22;54576;52.020;5.536;2023-11-19T12:20:04;13.80;99.90
67777;DHT22;54576;52.020;5.536;2023-11-19T12:24:58;13.80;99.90
67777;DHT22;54576;52.020;5.536;2023-11-19T12:29:51;13.90;99.90
67777;DHT22;54576;52.020;5.536;2023-11-19T12:32:17;13.90;99.90
67777;DHT22;54576;52.020;5.536;2023-11-19T12:34:43;14.00;99.90
67777;DHT22;54576;52.020;5.536;2023-11-19T12:37:10;14.00;99.90
67777;DHT22;54576;52.020;5.536;2023-11-19T12:39:36;14.00;99.90
67777;DHT22;54576;52.020;5.536;2023-11-19T12:42:01;14.00;99.90
67777;DHT22;54576;52.020;5.536;2023-11-19T12:44:27;14.10;99.90
67777;DHT22;54576;52.020;5.536;2023-11-19T12:47:06;14.10;99.90
67777;DHT22;54576;52.020;5.536;2023-11-19T12:49:35;14.10;99.90
67777;DHT22;54576;52.020;5.536;2023-11-19T12:52:01;14.10;99.90
67777;DHT22;54576;52.020;5.536;2023-11-19T12:54:36;14.20;99.90
67777;DHT22;54576;52.020;5.536;2023-11-19T12:59:30;14.20;99.90
67777;DHT22;54576;52.020;5.536;2023-11-19T13:01:59;14.10;99.90
67777;DHT22;54576;52.020;5.536;2023-11-19T13:04:29;14.20;99.90
67777;DHT22;54576;52.020;5.536;2023-11-19T13:09:23;14.20;99.90
67777;DHT22;54576;52.020;5.536;2023-11-19T13:11:50;14.20;99.90
67777;DHT22;54576;52.020;5.536;2023-11-19T13:14:16;14.10;99.90
67777;DHT22;54576;52.020;5.536;2023-11-19T13:16:42;14.10;99.90
67777;DHT22;54576;52.020;5.536;2023-11-19T13:19:08;14.00;99.90
67777;DHT22;54576;52.020;5.536;2023-11-19T13:21:34;14.00;99.90
67777;DHT22;54576;52.020;5.536;2023-11-19T13:24:00;13.90;99.90
67777;DHT22;54576;52.020;5.536;2023-11-19T13:26:25;13.90;99.90
67777;DHT22;54576;52.020;5.536;2023-11-19T13:28:51;13.90;99.90
67777;DHT22;54576;52.020;5.536;2023-11-19T13:31:17;13.80;99.90
67777;DHT22;54576;52.020;5.536;2023-11-19T13:33:42;13.80;99.90
67777;DHT22;54576;52.020;5.536;2023-11-19T13:36:08;13.70;99.90
67777;DHT22;54576;52.020;5.536;2023-11-19T13:38:35;13.70;99.90
67777;DHT22;54576;52.020;5.536;2023-11-19T13:41:01;13.60;99.90
67777;DHT22;54576;52.020;5.536;2023-11-19T13:43:27;13.50;99.90
67777;DHT22;54576;52.020;5.536;2023-11-19T13:45:56;13.50;99.90
67777;DHT22;54576;52.020;5.536;2023-11-19T13:48:22;13.50;99.90
67777;DHT22;54576;52.020;5.536;2023-11-19T13:50:47;13.40;99.90
67777;DHT22;54576;52.020;5.536;2023-11-19T13:53:13;13.30;99.90
67777;DHT22;54576;52.020;5.536;2023-11-19T13:55:38;13.30;99.90
67777;DHT22;54576;52.020;5.536;2023-11-19T13:58:04;13.20;99.90
67777;DHT22;54576;52.020;5.536;2023-11-19T14:00:30;13.20;99.90
67777;DHT22;54576;52.020;5.536;2023-11-19T14:02:55;13.20;99.90
67777;DHT22;54576;52.020;5.536;2023-11-19T14:05:21;13.20;99.90
67777;DHT22;54576;52.020;5.536;2023-11-19T14:07:46;13.20;99.90
67777;DHT22;54576;52.020;5.536;2023-11-19T14:10:16;13.10;99.90
67777;DHT22;54576;52.020;5.536;2023-11-19T14:12:42;13.10;99.90
67777;DHT22;54576;52.020;5.536;2023-11-19T14:15:10;13.20;99.90
67777;DHT22;54576;52.020;5.536;2023-11-19T14:17:37;13.20;99.90
67777;DHT22;54576;52.020;5.536;2023-11-19T14:20:03;13.20;99.90
67777;DHT22;54576;52.020;5.536;2023-11-19T14:22:47;13.30;99.90
67777;DHT22;54576;52.020;5.536;2023-11-19T14:25:15;13.30;99.90
67777;DHT22;54576;52.020;5.536;2023-11-19T14:27:41;13.30;99.90
67777;DHT22;54576;52.020;5.536;2023-11-19T14:30:09;13.30;99.90
67777;DHT22;54576;52.020;5.536;2023-11-19T14:32:36;13.30;99.90
67777;DHT22;54576;52.020;5.536;2023-11-19T14:35:02;13.20;99.90
67777;DHT22;54576;52.020;5.536;2023-11-19T14:37:29;13.20;99.90
67777;DHT22;54576;52.020;5.536;2023-11-19T14:39:56;13.10;99.90
67777;DHT22;54576;52.020;5.536;2023-11-19T14:42:23;13.00;99.90
67777;DHT22;54576;52.020;5.536;2023-11-19T14:44:52;13.00;99.90
67777;DHT22;54576;52.020;5.536;2023-11-19T14:47:21;13.00;99.90
67777;DHT22;54576;52.020;5.536;2023-11-19T14:49:47;12.90;99.90
67777;DHT22;54576;52.020;5.536;2023-11-19T14:52:13;13.00;99.90
67777;DHT22;54576;52.020;5.536;2023-11-19T14:54:39;12.90;99.90
67777;DHT22;54576;52.020;5.536;2023-11-19T14:57:05;12.90;99.90
67777;DHT22;54576;52.020;5.536;2023-11-19T14:59:32;12.90;99.90
67777;DHT22;54576;52.020;5.536;2023-11-19T15:01:58;12.90;99.90
67777;DHT22;54576;52.020;5.536;2023-11-19T15:04:25;12.80;99.90
67777;DHT22;54576;52.020;5.536;2023-11-19T15:06:57;12.80;99.90
67777;DHT22;54576;52.020;5.536;2023-11-19T15:09:22;12.80;99.90
67777;DHT22;54576;52.020;5.536;2023-11-19T15:11:48;12.80;99.90
67777;DHT22;54576;52.020;5.536;2023-11-19T15:14:14;12.80;99.90
67777;DHT22;54576;52.020;5.536;2023-11-19T15:16:45;12.80;99.90
67777;DHT22;54576;52.020;5.536;2023-11-19T15:19:11;12.80;99.90
67777;DHT22;54576;52.020;5.536;2023-11-19T15:21:38;12.80;99.90
67777;DHT22;54576;52.020;5.536;2023-11-19T15:24:04;12.80;99.90
67777;DHT22;54576;52.020;5.536;2023-11-19T15:26:33;12.80;99.90
67777;DHT22;54576;52.020;5.536;2023-11-19T15:28:59;12.80;99.90
67777;DHT22;54576;52.020;5.536;2023-11-19T15:31:24;12.80;99.90
67777;DHT22;54576;52.020;5.536;2023-11-19T15:33:50;12.80;99.90
67777;DHT22;54576;52.020;5.536;2023-11-19T15:36:16;12.80;99.90
67777;DHT22;54576;52.020;5.536;2023-11-19T15:38:43;12.80;99.90
67777;DHT22;54576;52.020;5.536;2023-11-19T15:41:08;12.80;99.90
67777;DHT22;54576;52.020;5.536;2023-11-19T15:43:34;12.80;99.90
67777;DHT22;54576;52.020;5.536;2023-11-19T15:46:00;12.80;99.90
67777;DHT22;54576;52.020;5.536;2023-11-19T15:48:26;12.80;99.90
67777;DHT22;54576;52.020;5.536;2023-11-19T15:50:52;12.80;99.90
67777;DHT22;54576;52.020;5.536;2023-11-19T15:53:18;12.80;99.90
67777;DHT22;54576;52.020;5.536;2023-11-19T15:55:44;12.80;99.90
67777;DHT22;54576;52.020;5.536;2023-11-19T15:58:10;12.80;99.90
67777;DHT22;54576;52.020;5.536;2023-11-19T16:00:36;12.80;99.90
67777;DHT22;54576;52.020;5.536;2023-11-19T16:03:02;12.70;99.90
67777;DHT22;54576;52.020;5.536;2023-11-19T16:05:27;12.70;99.90
67777;DHT22;54576;52.020;5.536;2023-11-19T16:07:53;12.70;99.90
67777;DHT22;54576;52.020;5.536;2023-11-19T16:10:19;12.70;99.90
67777;DHT22;54576;52.020;5.536;2023-11-19T16:12:47;12.70;99.90
67777;DHT22;54576;52.020;5.536;2023-11-19T16:15:13;12.70;99.90